Weather at Koodaideri Mine Airport

Public forecast

Using degrees Celsius for public forecast. Weather courtesy of forecast.io.

Closest aviation weather report (METAR) to Koodaideri Mine Airport

Closest report is Port Hedland International Airport, 130.1 nm (241.0 km) N.

2024/05/21 00:00 (retrieved 11 minutes ago)

YPPD 210000Z AUTO 11016KT 9999 // NCD 22/M08 Q1019 RF000/0000

Closest aviation forecast (TAF) to Koodaideri Mine Airport

Closest forecast is RAAF Base Curtin, 398.9 nm (738.9 km) NE.

2024/05/20 20:00 (retrieved 4 hours ago)

TAF YCIN 201812Z 2020/2108 11011KT CAVOK FM210000 10016KT CAVOK FM210400 11011KT CAVOK